Time;durP1;ratioP1;P1;durP2;ratioP2;P2;SDS_P1;SDS_P2;PMS_P1;PMS_P2;Temp;Humidity;BMP_temperature;BMP_pressure;BME280_temperature;BME280_humidity;BME280_pressure;Samples;Min_cycle;Max_cycle;Signal;HPM_P1;HPM_P2
2023/08/21 00:01:31;;;;;;;5.60;2.50;;;14.20;91.70;;;;;;5023568;28;20040;-67
2023/08/21 00:03:57;;;;;;;5.00;2.43;;;14.20;91.80;;;;;;5024099;28;20084;-67
2023/08/21 00:06:22;;;;;;;4.90;2.57;;;14.10;91.80;;;;;;5027743;28;20088;-67
2023/08/21 00:08:48;;;;;;;8.57;3.00;;;14.10;91.80;;;;;;5031259;28;20526;-67
2023/08/21 00:11:14;;;;;;;6.00;2.83;;;14.10;91.80;;;;;;5017978;28;20045;-67
2023/08/21 00:13:40;;;;;;;6.10;2.90;;;14.10;92.10;;;;;;5031895;28;20033;-67
2023/08/21 00:16:06;;;;;;;4.67;2.67;;;14.00;92.10;;;;;;5025654;28;20042;-67
2023/08/21 00:18:32;;;;;;;5.90;2.73;;;14.00;92.20;;;;;;5038505;28;20734;-67
2023/08/21 00:20:57;;;;;;;6.10;2.80;;;14.00;92.20;;;;;;5030283;28;20053;-67
2023/08/21 00:23:23;;;;;;;4.97;2.70;;;13.90;92.20;;;;;;5026690;28;21356;-67
2023/08/21 00:25:49;;;;;;;6.33;3.20;;;13.90;92.20;;;;;;5016357;28;20116;-67
2023/08/21 00:28:14;;;;;;;5.73;3.40;;;13.90;92.40;;;;;;5031645;28;20041;-67
2023/08/21 00:30:42;;;;;;;7.17;2.90;;;13.90;92.90;;;;;;5032560;28;20122;-67
2023/08/21 00:33:07;;;;;;;3.00;2.20;;;13.90;92.90;;;;;;5031206;28;20041;-67
2023/08/21 00:35:33;;;;;;;3.97;2.40;;;13.90;92.90;;;;;;5008259;28;20356;-67
2023/08/21 00:37:59;;;;;;;4.23;2.60;;;13.80;92.90;;;;;;5031336;28;20037;-67
2023/08/21 00:40:24;;;;;;;5.97;2.73;;;13.80;92.90;;;;;;5021412;28;20046;-67
2023/08/21 00:42:50;;;;;;;3.43;2.27;;;13.80;93.00;;;;;;5030995;28;20033;-67
2023/08/21 00:45:16;;;;;;;4.00;2.40;;;13.80;93.00;;;;;;5028173;28;20048;-67
2023/08/21 00:47:43;;;;;;;6.60;2.73;;;13.80;93.20;;;;;;5015153;28;20121;-67
2023/08/21 00:50:11;;;;;;;3.80;2.80;;;13.80;93.30;;;;;;5029993;28;20041;-67
2023/08/21 00:52:39;;;;;;;4.30;2.60;;;13.80;93.50;;;;;;5028198;28;20283;-67
2023/08/21 00:55:06;;;;;;;9.83;2.80;;;13.80;93.50;;;;;;5033116;28;20302;-67
2023/08/21 00:57:33;;;;;;;4.23;2.67;;;13.80;93.40;;;;;;5031600;28;20311;-67
2023/08/21 01:00:00;;;;;;;5.00;2.60;;;13.80;93.60;;;;;;5033007;28;20287;-67
2023/08/21 01:02:27;;;;;;;5.63;3.07;;;13.90;93.60;;;;;;5015260;28;20836;-67
2023/08/21 01:04:53;;;;;;;5.07;2.87;;;13.80;93.60;;;;;;5028998;28;20357;-67
2023/08/21 01:07:18;;;;;;;5.07;2.63;;;13.80;93.50;;;;;;5030374;28;20295;-67
2023/08/21 01:09:52;;;;;;;7.57;3.03;;;13.80;93.70;;;;;;5032456;28;20045;-67
2023/08/21 01:12:29;;;;;;;5.03;2.70;;;13.80;93.70;;;;;;5028520;28;20072;-67
2023/08/21 01:15:06;;;;;;;4.73;2.57;;;13.90;93.80;;;;;;5032094;28;20291;-67
2023/08/21 01:17:35;;;;;;;5.43;3.10;;;13.90;94.10;;;;;;5012091;28;20283;-67
2023/08/21 01:20:02;;;;;;;6.73;3.03;;;13.80;94.10;;;;;;5032354;28;20287;-67
2023/08/21 01:22:39;;;;;;;5.10;2.77;;;13.80;94.10;;;;;;5032761;28;20290;-67
2023/08/21 01:25:05;;;;;;;9.60;3.30;;;13.80;93.90;;;;;;5028028;28;20859;-67
2023/08/21 01:27:32;;;;;;;6.97;3.23;;;13.80;94.00;;;;;;5015316;28;20355;-67
2023/08/21 01:29:58;;;;;;;5.93;2.90;;;13.80;94.10;;;;;;5011215;28;20288;-67
2023/08/21 01:32:34;;;;;;;7.10;3.00;;;13.80;94.10;;;;;;5015085;28;20282;-67
2023/08/21 01:35:01;;;;;;;6.70;2.80;;;13.80;94.00;;;;;;5011432;28;20395;-67
2023/08/21 01:37:28;;;;;;;5.17;2.80;;;13.80;94.20;;;;;;5007231;28;20284;-67
2023/08/21 01:39:57;;;;;;;3.57;2.57;;;13.70;94.20;;;;;;4989116;28;20312;-67
2023/08/21 01:42:23;;;;;;;7.53;3.27;;;13.70;94.20;;;;;;5008311;28;20288;-67
2023/08/21 01:44:49;;;;;;;4.27;2.80;;;13.70;94.20;;;;;;5005752;28;20313;-67
2023/08/21 01:47:14;;;;;;;4.83;2.87;;;13.70;94.30;;;;;;5005225;28;20117;-67
2023/08/21 01:49:40;;;;;;;4.50;2.40;;;13.60;94.30;;;;;;5012839;28;20092;-67
2023/08/21 01:52:06;;;;;;;5.63;2.37;;;13.60;94.30;;;;;;5013909;28;20065;-67
2023/08/21 01:54:31;;;;;;;4.83;2.30;;;13.60;94.40;;;;;;5009395;28;20037;-67
2023/08/21 01:56:57;;;;;;;4.83;2.40;;;13.50;94.40;;;;;;5012772;28;20033;-67
2023/08/21 01:59:24;;;;;;;6.40;2.50;;;13.50;94.40;;;;;;5010608;28;20052;-67
2023/08/21 02:01:50;;;;;;;4.23;2.03;;;13.50;94.50;;;;;;4996772;28;20434;-67
2023/08/21 02:04:16;;;;;;;4.03;2.20;;;13.50;94.60;;;;;;5012894;28;20284;-67
2023/08/21 02:06:43;;;;;;;3.50;2.13;;;13.40;94.70;;;;;;5017971;28;20580;-67
2023/08/21 02:09:10;;;;;;;3.90;2.23;;;13.40;94.70;;;;;;5004375;28;20394;-66
2023/08/21 02:11:35;;;;;;;4.60;2.30;;;13.40;94.90;;;;;;5001697;28;20316;-66
2023/08/21 02:14:02;;;;;;;6.77;2.70;;;13.40;94.90;;;;;;4998925;28;20694;-66
2023/08/21 02:16:27;;;;;;;3.87;2.53;;;13.40;95.20;;;;;;4996839;28;20058;-66
2023/08/21 02:18:53;;;;;;;5.63;2.70;;;13.50;95.20;;;;;;4992038;28;21290;-66
2023/08/21 02:21:20;;;;;;;3.53;2.50;;;13.50;95.20;;;;;;4987084;28;20046;-67
2023/08/21 02:23:46;;;;;;;5.50;2.20;;;13.50;95.10;;;;;;5009716;28;20401;-67
2023/08/21 02:26:12;;;;;;;6.40;2.53;;;13.40;95.10;;;;;;4984999;28;1169035;-66
2023/08/21 02:28:37;;;;;;;2.13;1.40;;;13.50;95.30;;;;;;5029567;28;20048;-66
2023/08/21 02:31:04;;;;;;;1.53;0.90;;;13.40;95.40;;;;;;5028995;28;20048;-66
2023/08/21 02:33:30;;;;;;;2.17;1.07;;;13.50;95.50;;;;;;5027118;28;20038;-66
2023/08/21 02:35:56;;;;;;;1.10;0.60;;;13.40;95.50;;;;;;5030687;28;20295;-66
2023/08/21 02:38:22;;;;;;;2.60;0.80;;;13.40;95.70;;;;;;5025988;28;20041;-66
2023/08/21 02:40:48;;;;;;;1.00;0.63;;;13.40;95.70;;;;;;5030375;28;20041;-66
2023/08/21 02:43:13;;;;;;;0.90;0.80;;;13.40;95.70;;;;;;5030255;28;20112;-66
2023/08/21 02:45:39;;;;;;;1.00;0.70;;;13.40;95.60;;;;;;5027963;28;20049;-66
2023/08/21 02:48:05;;;;;;;1.13;0.60;;;13.40;95.70;;;;;;5030359;28;20128;-66
2023/08/21 02:50:31;;;;;;;1.13;0.60;;;13.40;95.70;;;;;;5030671;28;20025;-66
2023/08/21 02:52:56;;;;;;;1.30;0.90;;;13.40;96.60;;;;;;5030862;28;20061;-66
2023/08/21 02:55:22;;;;;;;4.83;1.40;;;13.40;96.80;;;;;;5026595;28;20037;-66
2023/08/21 02:57:48;;;;;;;3.33;1.43;;;13.40;96.60;;;;;;5030979;28;20037;-67
2023/08/21 03:00:13;;;;;;;1.53;1.30;;;13.40;96.50;;;;;;5014210;28;20580;-67
2023/08/21 03:02:43;;;;;;;2.20;1.37;;;13.30;96.40;;;;;;5027506;28;20029;-67
2023/08/21 03:05:10;;;;;;;1.93;1.20;;;13.30;96.30;;;;;;5030716;28;20063;-67
2023/08/21 03:07:36;;;;;;;1.80;0.97;;;13.30;96.30;;;;;;5010667;28;20299;-66
2023/08/21 03:10:04;;;;;;;1.30;0.90;;;13.30;96.30;;;;;;5025371;28;20291;-67
2023/08/21 03:12:30;;;;;;;2.27;1.53;;;13.20;96.30;;;;;;5024943;28;20033;-66
2023/08/21 03:14:55;;;;;;;2.97;1.20;;;13.20;96.40;;;;;;5025244;28;20964;-66
2023/08/21 03:17:21;;;;;;;2.20;1.83;;;13.20;96.40;;;;;;5031400;28;20049;-66
2023/08/21 03:19:47;;;;;;;3.43;1.80;;;13.20;96.40;;;;;;5030795;28;20051;-66
2023/08/21 03:22:13;;;;;;;2.70;1.53;;;13.20;96.60;;;;;;5013494;28;20041;-66
2023/08/21 03:24:39;;;;;;;3.40;1.90;;;13.20;96.60;;;;;;5030737;28;20051;-66
2023/08/21 03:27:05;;;;;;;5.73;1.77;;;13.20;96.70;;;;;;5027714;28;20287;-66
2023/08/21 03:29:30;;;;;;;4.33;1.83;;;13.20;96.70;;;;;;5027896;28;20039;-66
2023/08/21 03:31:56;;;;;;;3.77;2.00;;;13.20;96.80;;;;;;5028315;28;20469;-66
2023/08/21 03:34:22;;;;;;;4.53;2.10;;;13.20;96.70;;;;;;5025388;28;20068;-66
2023/08/21 03:36:47;;;;;;;3.57;2.30;;;13.20;96.80;;;;;;5024958;28;20424;-66
2023/08/21 03:39:13;;;;;;;4.53;2.23;;;13.20;96.70;;;;;;5024041;28;20041;-66
2023/08/21 03:41:39;;;;;;;4.00;2.37;;;13.20;96.70;;;;;;5028416;28;20041;-66
2023/08/21 03:44:05;;;;;;;4.73;2.33;;;13.20;96.80;;;;;;5030500;28;20099;-66
2023/08/21 03:46:30;;;;;;;3.73;2.13;;;13.20;96.70;;;;;;5030098;28;20045;-66
2023/08/21 03:48:56;;;;;;;3.70;2.30;;;13.10;96.90;;;;;;5014040;28;20041;-66
2023/08/21 03:51:22;;;;;;;6.37;2.87;;;13.10;96.80;;;;;;5012865;28;20040;-66
2023/08/21 03:53:49;;;;;;;4.57;2.37;;;13.10;97.10;;;;;;5029960;28;20048;-66
2023/08/21 03:56:14;;;;;;;4.23;2.63;;;13.10;97.30;;;;;;5027068;28;20386;-67
2023/08/21 03:58:40;;;;;;;4.87;2.30;;;13.10;97.20;;;;;;5025202;28;20295;-67
2023/08/21 04:01:06;;;;;;;4.17;2.43;;;13.10;97.30;;;;;;5030541;28;20037;-67
2023/08/21 04:03:32;;;;;;;5.37;2.63;;;13.10;97.30;;;;;;5029639;28;20037;-67
2023/08/21 04:05:58;;;;;;;5.30;2.93;;;13.10;97.40;;;;;;5024906;28;20072;-67
2023/08/21 04:08:25;;;;;;;4.40;2.77;;;13.10;97.40;;;;;;5024824;28;20292;-67
2023/08/21 04:10:52;;;;;;;4.43;2.50;;;13.10;97.60;;;;;;5029046;28;20279;-67
2023/08/21 04:13:18;;;;;;;6.53;3.30;;;13.10;97.50;;;;;;5026484;28;20438;-67
2023/08/21 04:15:45;;;;;;;8.60;3.17;;;13.10;97.50;;;;;;5000982;28;20863;-67
2023/08/21 04:18:11;;;;;;;6.37;3.13;;;13.10;97.60;;;;;;5034489;28;20291;-67
2023/08/21 04:20:37;;;;;;;4.97;2.77;;;13.10;97.60;;;;;;5013537;28;20442;-67
2023/08/21 04:23:03;;;;;;;7.67;3.03;;;13.20;97.60;;;;;;5029738;28;20037;-67
2023/08/21 04:25:28;;;;;;;5.30;2.97;;;13.20;97.80;;;;;;5011512;28;20350;-67
2023/08/21 04:27:54;;;;;;;3.40;2.40;;;13.20;97.90;;;;;;5012295;28;20049;-67
2023/08/21 04:30:20;;;;;;;5.23;2.53;;;13.20;98.00;;;;;;5027401;28;20032;-67
2023/08/21 04:32:46;;;;;;;4.37;2.97;;;13.20;97.80;;;;;;5030564;28;20119;-67
2023/08/21 04:35:12;;;;;;;5.37;2.50;;;13.30;97.90;;;;;;5029807;28;20179;-67
2023/08/21 04:37:43;;;;;;;4.47;2.43;;;13.20;97.90;;;;;;5028966;28;20378;-67
2023/08/21 04:40:10;;;;;;;4.53;2.40;;;13.30;97.90;;;;;;5023939;28;20144;-67
2023/08/21 04:42:36;;;;;;;6.20;2.60;;;13.30;98.00;;;;;;5026746;28;20780;-67
2023/08/21 04:45:02;;;;;;;5.93;3.07;;;13.30;98.00;;;;;;5029767;28;20315;-67
2023/08/21 04:47:28;;;;;;;3.10;2.00;;;13.30;98.10;;;;;;5011841;28;20033;-67
2023/08/21 04:49:55;;;;;;;3.10;2.30;;;13.30;98.00;;;;;;5029765;28;20290;-67
2023/08/21 04:52:21;;;;;;;3.30;2.30;;;13.40;98.20;;;;;;5032751;28;20279;-67
2023/08/21 04:54:48;;;;;;;3.10;1.90;;;13.40;98.10;;;;;;5017176;28;20322;-67
2023/08/21 04:57:14;;;;;;;3.20;2.50;;;13.40;98.10;;;;;;5030268;28;21067;-67
2023/08/21 04:59:40;;;;;;;4.97;2.60;;;13.50;98.30;;;;;;5032705;28;20283;-67
2023/08/21 05:02:06;;;;;;;2.77;1.87;;;13.50;98.30;;;;;;5031590;28;20623;-67
2023/08/21 05:04:32;;;;;;;8.03;2.93;;;13.60;98.30;;;;;;5029794;28;20029;-67
2023/08/21 05:06:57;;;;;;;4.10;2.57;;;13.60;98.30;;;;;;5029325;28;20115;-67
2023/08/21 05:09:23;;;;;;;6.33;2.50;;;13.60;98.40;;;;;;5033028;28;20738;-67
2023/08/21 05:11:49;;;;;;;3.70;2.20;;;13.70;98.30;;;;;;5033361;28;20059;-68
2023/08/21 05:14:14;;;;;;;4.97;2.27;;;13.70;98.40;;;;;;5010582;28;20053;-68
2023/08/21 05:16:40;;;;;;;4.77;2.20;;;13.80;98.40;;;;;;5032555;28;20040;-68
2023/08/21 05:19:06;;;;;;;4.93;2.03;;;13.80;98.40;;;;;;5032777;28;20436;-68
2023/08/21 05:21:32;;;;;;;6.37;2.40;;;13.90;98.30;;;;;;5032095;28;20037;-68
2023/08/21 05:23:57;;;;;;;4.40;2.03;;;13.90;98.30;;;;;;5028169;28;20041;-68
2023/08/21 05:26:23;;;;;;;3.93;2.13;;;14.00;98.30;;;;;;5031195;28;20063;-68
2023/08/21 05:28:49;;;;;;;9.20;3.00;;;14.10;98.50;;;;;;5030746;28;20044;-68
2023/08/21 05:31:14;;;;;;;5.23;2.53;;;14.20;98.70;;;;;;5030432;28;20098;-68
2023/08/21 05:33:40;;;;;;;6.57;2.33;;;14.30;98.60;;;;;;5016702;28;20037;-68
2023/08/21 05:36:06;;;;;;;7.57;3.07;;;14.40;98.60;;;;;;5032749;28;20123;-68
2023/08/21 05:38:32;;;;;;;4.27;2.40;;;14.50;98.80;;;;;;5025948;28;20041;-68
2023/08/21 05:40:58;;;;;;;6.63;2.30;;;14.60;98.60;;;;;;5026635;28;20040;-68
2023/08/21 05:43:24;;;;;;;4.90;2.50;;;14.70;98.70;;;;;;5032636;28;20294;-68
2023/08/21 05:45:50;;;;;;;5.00;2.43;;;14.90;98.80;;;;;;5031270;28;20386;-68
2023/08/21 05:48:17;;;;;;;7.03;2.60;;;15.00;99.00;;;;;;5030593;28;20286;-68
2023/08/21 05:50:43;;;;;;;5.43;2.20;;;15.10;98.80;;;;;;5029242;28;20134;-68
2023/08/21 05:53:09;;;;;;;8.37;2.97;;;15.20;98.70;;;;;;5026807;28;20315;-68
2023/08/21 05:55:37;;;;;;;9.13;3.23;;;15.30;98.80;;;;;;5027120;28;20052;-68
2023/08/21 05:58:03;;;;;;;8.87;2.80;;;15.40;98.70;;;;;;5032000;28;20664;-68
2023/08/21 06:00:29;;;;;;;6.13;2.80;;;15.50;98.70;;;;;;5030315;28;20334;-68
2023/08/21 06:02:55;;;;;;;8.70;3.10;;;15.60;98.70;;;;;;5031958;28;20643;-68
2023/08/21 06:05:20;;;;;;;7.80;3.33;;;15.70;98.60;;;;;;5030608;28;20033;-68
2023/08/21 06:07:46;;;;;;;6.87;2.77;;;15.80;98.60;;;;;;5027433;28;20048;-68
2023/08/21 06:10:12;;;;;;;7.07;3.20;;;15.90;98.70;;;;;;5029702;28;20033;-68
2023/08/21 06:12:41;;;;;;;4.97;2.53;;;16.00;98.60;;;;;;5025906;28;20075;-68
2023/08/21 06:15:11;;;;;;;6.17;2.43;;;16.10;98.50;;;;;;5026661;28;20068;-68
2023/08/21 06:17:38;;;;;;;3.93;2.30;;;16.20;98.40;;;;;;5013737;28;20287;-68
2023/08/21 06:20:05;;;;;;;9.47;3.17;;;16.30;98.40;;;;;;5031000;28;20310;-68
2023/08/21 06:22:35;;;;;;;7.80;2.70;;;16.40;98.60;;;;;;5028986;28;20287;-68
2023/08/21 06:25:01;;;;;;;9.87;2.73;;;16.60;98.50;;;;;;5031350;28;20303;-68
2023/08/21 06:27:27;;;;;;;5.80;2.27;;;16.70;98.40;;;;;;5031406;28;20356;-68
2023/08/21 06:29:53;;;;;;;6.67;2.73;;;16.80;98.50;;;;;;5030338;28;20560;-68
2023/08/21 06:32:18;;;;;;;6.90;2.50;;;16.90;98.40;;;;;;5028591;28;20055;-68
2023/08/21 06:34:44;;;;;;;8.53;2.73;;;17.00;98.40;;;;;;5014251;28;20137;-68
2023/08/21 06:37:10;;;;;;;7.10;3.20;;;17.10;98.40;;;;;;5027559;28;20031;-68
2023/08/21 06:39:35;;;;;;;4.17;2.27;;;17.20;98.40;;;;;;5026004;28;20511;-68
2023/08/21 06:42:01;;;;;;;5.33;2.40;;;17.30;98.40;;;;;;5022380;28;20048;-68
2023/08/21 06:44:27;;;;;;;6.63;3.47;;;17.40;98.70;;;;;;5027108;28;20124;-68
2023/08/21 06:46:53;;;;;;;5.53;2.60;;;17.70;99.70;;;;;;5024387;28;20399;-68
2023/08/21 06:49:19;;;;;;;6.20;2.70;;;18.20;99.70;;;;;;5025890;28;20045;-68
2023/08/21 06:51:44;;;;;;;6.97;2.90;;;18.70;97.90;;;;;;5018490;28;20054;-68
2023/08/21 06:54:10;;;;;;;6.73;3.03;;;18.90;96.70;;;;;;5012429;28;20043;-68
2023/08/21 06:56:36;;;;;;;6.40;2.57;;;18.80;96.00;;;;;;5030135;28;20045;-68
2023/08/21 06:59:02;;;;;;;5.80;2.80;;;18.80;95.70;;;;;;5029604;28;20303;-68
2023/08/21 07:01:28;;;;;;;9.80;3.47;;;18.80;95.70;;;;;;5031995;28;20187;-68
2023/08/21 07:03:54;;;;;;;8.23;3.30;;;18.80;95.40;;;;;;5030598;28;20040;-68
2023/08/21 07:06:20;;;;;;;8.07;2.97;;;18.70;95.20;;;;;;5030923;28;21558;-68
2023/08/21 07:08:46;;;;;;;6.07;2.50;;;18.80;95.20;;;;;;5031577;28;20187;-68
2023/08/21 07:11:12;;;;;;;6.73;2.57;;;18.80;95.10;;;;;;5014556;28;20124;-68
2023/08/21 07:13:38;;;;;;;5.80;2.63;;;18.80;95.10;;;;;;5030837;28;20044;-68
2023/08/21 07:16:05;;;;;;;5.37;2.47;;;18.90;94.90;;;;;;5031336;28;20044;-68
2023/08/21 07:18:33;;;;;;;9.70;2.53;;;18.90;94.80;;;;;;5013024;28;20067;-68
2023/08/21 07:20:59;;;;;;;8.37;2.93;;;19.00;94.60;;;;;;5024418;28;20053;-68
2023/08/21 07:23:24;;;;;;;6.80;2.97;;;19.10;94.50;;;;;;5028527;28;20045;-68
2023/08/21 07:25:50;;;;;;;5.97;2.40;;;19.10;94.60;;;;;;5030219;28;20048;-68
2023/08/21 07:28:16;;;;;;;5.27;2.50;;;19.30;94.40;;;;;;5021876;28;20044;-68
2023/08/21 07:30:42;;;;;;;6.33;3.13;;;19.40;94.20;;;;;;5028223;28;20099;-67
2023/08/21 07:33:08;;;;;;;9.07;3.00;;;19.50;93.90;;;;;;5018062;28;20481;-68
2023/08/21 07:35:34;;;;;;;9.47;3.17;;;19.50;93.50;;;;;;5027340;28;20052;-68
2023/08/21 07:38:02;;;;;;;7.60;2.90;;;19.60;93.40;;;;;;5028757;28;20051;-68
2023/08/21 07:40:27;;;;;;;10.17;3.83;;;19.70;93.50;;;;;;5029074;28;20045;-68
2023/08/21 07:42:53;;;;;;;6.37;3.00;;;19.90;93.40;;;;;;5032507;28;20590;-68
2023/08/21 07:45:19;;;;;;;10.43;3.37;;;19.90;93.00;;;;;;5027139;28;20536;-68
2023/08/21 07:47:45;;;;;;;4.33;2.43;;;20.00;92.90;;;;;;5029916;28;20046;-68
2023/08/21 07:50:10;;;;;;;6.87;3.03;;;20.20;92.70;;;;;;5022124;28;20029;-68
2023/08/21 07:52:36;;;;;;;6.87;3.20;;;20.30;92.60;;;;;;5020842;28;20041;-68
2023/08/21 07:55:03;;;;;;;10.87;3.30;;;20.40;92.50;;;;;;5029613;28;20049;-68
2023/08/21 07:57:30;;;;;;;7.43;3.43;;;20.50;92.10;;;;;;5025040;28;20103;-68
2023/08/21 07:59:56;;;;;;;5.90;2.93;;;20.60;91.90;;;;;;5027890;28;20056;-68
2023/08/21 08:02:22;;;;;;;8.90;3.43;;;20.70;91.60;;;;;;5028317;28;20041;-68
2023/08/21 08:04:48;;;;;;;10.77;3.40;;;20.80;91.40;;;;;;5003312;28;20045;-68
2023/08/21 08:07:14;;;;;;;7.27;2.80;;;20.90;90.80;;;;;;5023460;28;20497;-68
2023/08/21 08:09:39;;;;;;;7.60;3.37;;;21.00;89.50;;;;;;5039206;28;20037;-68
2023/08/21 08:12:06;;;;;;;6.93;3.20;;;21.10;89.60;;;;;;5026490;28;20060;-68
2023/08/21 08:14:32;;;;;;;13.10;3.57;;;21.10;88.60;;;;;;5019078;28;20045;-68
2023/08/21 08:16:57;;;;;;;7.20;3.30;;;21.20;88.20;;;;;;5019899;28;20044;-68
2023/08/21 08:19:23;;;;;;;6.63;2.97;;;21.30;88.00;;;;;;5024753;28;20495;-68
2023/08/21 08:21:49;;;;;;;9.47;2.70;;;21.40;87.60;;;;;;5025959;28;20033;-68
2023/08/21 08:24:14;;;;;;;9.00;3.00;;;21.50;87.50;;;;;;5012197;28;20371;-68
2023/08/21 08:26:42;;;;;;;6.27;2.83;;;21.60;86.80;;;;;;5028458;28;20095;-68
2023/08/21 08:29:08;;;;;;;13.60;2.87;;;21.70;86.40;;;;;;5028978;28;20504;-68
2023/08/21 08:31:34;;;;;;;6.97;2.53;;;21.80;86.60;;;;;;5019436;28;20087;-68
2023/08/21 08:34:00;;;;;;;5.80;1.67;;;21.90;85.40;;;;;;5029847;28;20043;-68
2023/08/21 08:36:25;;;;;;;5.47;1.97;;;22.00;84.10;;;;;;5024419;28;20117;-68
2023/08/21 08:38:51;;;;;;;7.23;1.83;;;22.10;83.40;;;;;;5027726;28;20040;-68
2023/08/21 08:41:32;;;;;;;4.90;1.73;;;22.10;82.00;;;;;;5025493;28;21010;-68
2023/08/21 08:44:00;;;;;;;6.03;1.80;;;22.10;81.70;;;;;;5025648;28;20036;-68
2023/08/21 08:46:29;;;;;;;5.33;1.83;;;22.20;81.50;;;;;;5023377;28;20049;-68
2023/08/21 08:48:56;;;;;;;8.20;1.77;;;22.20;80.10;;;;;;5032985;28;20253;-68
2023/08/21 08:51:24;;;;;;;5.93;1.70;;;22.30;80.40;;;;;;5028132;28;20028;-68
2023/08/21 08:53:50;;;;;;;6.10;2.87;;;22.30;80.10;;;;;;5029413;28;20037;-68
2023/08/21 08:56:16;;;;;;;8.80;2.30;;;22.40;79.30;;;;;;5024460;28;20115;-68
2023/08/21 08:58:42;;;;;;;6.97;2.47;;;22.40;79.30;;;;;;5029173;28;20112;-67
2023/08/21 09:01:10;;;;;;;7.53;3.03;;;22.50;79.90;;;;;;5032115;28;20131;-68
2023/08/21 09:03:37;;;;;;;9.37;2.93;;;22.60;79.50;;;;;;5032057;28;20729;-67
2023/08/21 09:06:03;;;;;;;7.00;2.30;;;22.70;79.20;;;;;;5030355;28;20040;-67
2023/08/21 09:08:29;;;;;;;6.23;2.97;;;22.70;79.30;;;;;;5033610;28;20037;-67
2023/08/21 09:10:55;;;;;;;10.27;3.50;;;22.80;77.90;;;;;;5033092;28;20595;-67
2023/08/21 09:13:21;;;;;;;5.50;2.83;;;22.80;77.90;;;;;;5031177;28;20120;-67
2023/08/21 09:15:52;;;;;;;9.60;2.90;;;22.80;78.00;;;;;;5031910;28;20047;-67
2023/08/21 09:18:18;;;;;;;8.00;3.03;;;22.90;78.30;;;;;;5039579;28;20045;-67
2023/08/21 09:20:44;;;;;;;5.67;2.10;;;23.00;78.20;;;;;;5027784;28;20049;-68
2023/08/21 09:23:17;;;;;;;6.33;2.03;;;23.10;77.50;;;;;;5032242;28;20045;-67
2023/08/21 09:25:47;;;;;;;7.13;2.37;;;23.20;77.40;;;;;;5027545;28;20582;-67
2023/08/21 09:28:13;;;;;;;7.80;2.30;;;23.30;77.50;;;;;;5026930;28;20123;-67
2023/08/21 09:30:45;;;;;;;5.87;2.00;;;23.30;76.90;;;;;;5031498;28;20485;-67
2023/08/21 09:33:12;;;;;;;5.37;2.20;;;23.30;76.50;;;;;;5026165;28;20114;-67
2023/08/21 09:35:37;;;;;;;6.20;1.90;;;23.30;76.60;;;;;;5031478;28;20036;-68
2023/08/21 09:38:04;;;;;;;5.87;1.80;;;23.40;75.70;;;;;;5029593;28;20405;-67
2023/08/21 09:40:30;;;;;;;7.27;2.40;;;23.40;76.20;;;;;;5026521;28;20052;-68
2023/08/21 09:42:56;;;;;;;8.17;2.23;;;23.50;76.00;;;;;;5032038;28;20040;-68
2023/08/21 09:45:27;;;;;;;7.20;1.90;;;23.60;75.80;;;;;;5032021;28;20114;-68
2023/08/21 09:47:53;;;;;;;8.87;1.73;;;23.80;76.00;;;;;;5030076;28;20041;-68
2023/08/21 09:50:20;;;;;;;4.47;0.80;;;23.90;75.60;;;;;;5013601;28;20541;-68
2023/08/21 09:52:46;;;;;;;5.00;1.50;;;24.10;74.60;;;;;;5031489;28;20037;-69
2023/08/21 09:55:14;;;;;;;6.00;1.70;;;24.20;73.80;;;;;;5032912;28;20489;-69
2023/08/21 09:57:41;;;;;;;5.73;1.30;;;24.30;72.80;;;;;;5031711;28;20048;-69
2023/08/21 10:00:16;;;;;;;7.20;1.90;;;24.40;71.80;;;;;;5031922;28;20666;-69
2023/08/21 10:02:49;;;;;;;4.37;1.23;;;24.40;71.90;;;;;;5030608;28;20045;-69
2023/08/21 10:05:17;;;;;;;4.13;1.20;;;24.50;71.10;;;;;;5030637;28;20136;-69
2023/08/21 10:07:47;;;;;;;4.73;1.00;;;24.50;70.00;;;;;;5028165;28;20037;-69
2023/08/21 10:10:13;;;;;;;5.40;1.00;;;24.50;69.90;;;;;;5031184;28;20037;-69
2023/08/21 10:12:39;;;;;;;5.10;1.50;;;24.50;69.70;;;;;;5029625;28;20080;-69
2023/08/21 10:15:09;;;;;;;6.17;1.73;;;24.60;69.10;;;;;;5013136;28;20126;-69
2023/08/21 10:17:35;;;;;;;3.67;1.50;;;24.60;69.80;;;;;;5015486;28;20049;-68
2023/08/21 10:20:09;;;;;;;7.27;2.10;;;24.80;70.40;;;;;;5031670;28;20502;-69
2023/08/21 10:22:49;;;;;;;6.53;1.63;;;24.90;69.60;;;;;;5028373;28;20138;-69
2023/08/21 10:25:22;;;;;;;7.90;1.40;;;25.00;68.90;;;;;;5027898;28;20053;-69
2023/08/21 10:27:51;;;;;;;5.43;1.20;;;25.10;68.40;;;;;;5030075;28;20045;-69
2023/08/21 10:30:25;;;;;;;3.97;1.43;;;25.20;68.20;;;;;;5028495;28;20033;-69
2023/08/21 10:32:53;;;;;;;5.35;1.30;;;25.30;68.50;;;;;;5026034;28;20374;-69
2023/08/21 10:35:22;;;;;;;7.43;1.87;;;25.40;67.80;;;;;;5023581;28;20075;-69
2023/08/21 10:38:10;;;;;;;8.13;1.90;;;25.50;66.80;;;;;;5027151;28;20036;-68
2023/08/21 10:40:37;;;;;;;4.70;1.40;;;25.50;64.30;;;;;;5031438;28;20098;-69
2023/08/21 10:43:03;;;;;;;3.40;1.03;;;25.40;66.10;;;;;;5031659;28;20469;-69
2023/08/21 10:45:30;;;;;;;4.20;1.13;;;25.50;66.60;;;;;;5030007;28;20080;-69
2023/08/21 10:47:59;;;;;;;4.20;1.70;;;25.50;66.10;;;;;;5030032;28;20045;-69
2023/08/21 10:50:26;;;;;;;4.27;1.77;;;25.50;64.70;;;;;;5024435;28;20147;-69
2023/08/21 10:52:53;;;;;;;5.00;1.10;;;25.50;65.40;;;;;;5031742;28;20532;-69
2023/08/21 10:55:19;;;;;;;4.30;1.20;;;25.50;63.70;;;;;;5031249;28;20478;-69
2023/08/21 10:57:49;;;;;;;3.33;1.40;;;25.40;64.20;;;;;;5019950;28;20037;-69
2023/08/21 11:00:20;;;;;;;3.73;1.17;;;25.50;65.20;;;;;;5031088;28;20049;-69
2023/08/21 11:02:49;;;;;;;3.10;1.40;;;25.60;64.20;;;;;;5031476;28;20037;-69
2023/08/21 11:05:15;;;;;;;3.97;1.20;;;25.70;63.80;;;;;;5013501;28;20077;-69
2023/08/21 11:07:45;;;;;;;4.33;0.80;;;25.80;63.30;;;;;;5030451;28;20037;-69
2023/08/21 11:10:21;;;;;;;8.37;1.60;;;25.90;62.80;;;;;;5029731;28;20029;-69
2023/08/21 11:12:55;;;;;;;3.13;0.70;;;26.10;62.90;;;;;;5031186;28;20044;-69
2023/08/21 11:15:22;;;;;;;5.20;0.60;;;26.20;59.50;;;;;;5024649;28;20053;-69
2023/08/21 11:17:55;;;;;;;2.17;0.97;;;26.20;58.90;;;;;;5027524;28;20059;-69
2023/08/21 11:20:21;;;;;;;4.37;0.70;;;26.40;59.90;;;;;;5000162;28;20041;-69
2023/08/21 11:22:46;;;;;;;3.77;0.97;;;26.40;58.20;;;;;;5023958;28;20512;-69
2023/08/21 11:25:15;;;;;;;3.23;0.50;;;26.50;58.50;;;;;;5029095;28;20566;-69
2023/08/21 11:27:40;;;;;;;4.30;0.97;;;26.60;57.20;;;;;;5029096;28;20071;-69
2023/08/21 11:30:06;;;;;;;3.47;0.80;;;26.60;57.50;;;;;;5007227;28;20546;-69
2023/08/21 11:32:32;;;;;;;3.30;0.50;;;26.60;57.00;;;;;;5013745;28;20119;-69
2023/08/21 11:34:58;;;;;;;2.80;0.60;;;26.70;57.40;;;;;;5030316;28;20179;-69
2023/08/21 11:37:26;;;;;;;4.87;0.70;;;26.80;56.60;;;;;;5029013;28;20045;-70
2023/08/21 11:39:53;;;;;;;6.20;1.10;;;26.90;56.50;;;;;;5004570;28;20029;-69
2023/08/21 11:42:30;;;;;;;3.30;0.70;;;26.90;56.30;;;;;;5028329;28;20052;-70
2023/08/21 11:44:56;;;;;;;3.07;0.60;;;27.10;56.40;;;;;;5030107;28;20044;-69
2023/08/21 11:47:23;;;;;;;2.60;0.63;;;27.30;56.20;;;;;;5028052;28;20033;-69
2023/08/21 11:49:50;;;;;;;2.30;0.60;;;27.50;56.50;;;;;;5022011;28;20044;-69
2023/08/21 11:52:26;;;;;;;1.73;0.60;;;27.60;53.00;;;;;;5030559;28;20544;-70
2023/08/21 11:54:53;;;;;;;5.10;0.87;;;27.40;53.80;;;;;;5010809;28;20053;-69
2023/08/21 11:57:20;;;;;;;3.53;0.90;;;27.30;54.80;;;;;;5026104;28;20167;-69
2023/08/21 11:59:53;;;;;;;4.03;1.20;;;27.10;54.40;;;;;;5034244;28;20047;-69
2023/08/21 12:02:23;;;;;;;6.27;0.87;;;26.80;55.90;;;;;;5031045;28;20038;-69
2023/08/21 12:05:03;;;;;;;4.53;0.90;;;26.50;56.20;;;;;;5027333;28;20049;-69
2023/08/21 12:07:29;;;;;;;3.43;0.83;;;26.20;56.30;;;;;;5014647;28;20037;-69
2023/08/21 12:09:54;;;;;;;3.43;0.80;;;25.90;58.20;;;;;;5029853;28;20082;-69
2023/08/21 12:12:20;;;;;;;5.00;0.97;;;25.80;58.60;;;;;;5029698;28;20100;-69
2023/08/21 12:14:46;;;;;;;4.47;1.53;;;25.60;58.40;;;;;;5029635;28;20362;-69
2023/08/21 12:17:12;;;;;;;4.87;1.10;;;25.40;58.10;;;;;;5029908;28;20456;-69
2023/08/21 12:19:38;;;;;;;3.80;0.83;;;25.30;58.80;;;;;;5032541;28;20048;-69
2023/08/21 12:22:04;;;;;;;7.63;1.03;;;25.40;58.70;;;;;;5028248;28;20041;-69
2023/08/21 12:24:30;;;;;;;5.47;1.00;;;25.50;58.00;;;;;;5029877;28;20037;-69
2023/08/21 12:26:56;;;;;;;4.47;0.87;;;25.50;58.40;;;;;;5030306;28;20051;-69
2023/08/21 12:29:22;;;;;;;4.47;0.87;;;25.80;59.20;;;;;;5049164;28;20417;-69
2023/08/21 12:31:47;;;;;;;2.70;0.60;;;26.10;57.90;;;;;;5028452;28;20041;-69
2023/08/21 12:34:13;;;;;;;3.67;0.90;;;26.30;56.10;;;;;;5033351;28;20579;-69
2023/08/21 12:36:39;;;;;;;2.70;1.00;;;26.70;56.20;;;;;;5029471;28;20560;-69
2023/08/21 12:39:06;;;;;;;2.87;0.80;;;27.00;55.60;;;;;;5031613;28;20052;-69
2023/08/21 12:41:35;;;;;;;3.20;0.70;;;27.20;54.60;;;;;;5030318;28;20517;-69
2023/08/21 12:44:08;;;;;;;5.23;1.10;;;27.10;53.50;;;;;;5023086;28;20389;-69